createdAt,value
2019-01-20T02:32:56.163Z,8.00
2019-01-20T02:42:56.294Z,7.35
2019-01-20T02:52:54.960Z,8.30
2019-01-20T03:15:22.215Z,7.10
2019-01-20T03:22:52.503Z,7.70
2019-01-20T05:20:23.813Z,8.30
2019-01-20T12:35:34.684Z,7.10
2019-01-20T12:40:44.393Z,8.00
2019-01-20T12:43:14.622Z,6.90
2019-01-20T13:05:40.384Z,6.70
2019-01-20T13:08:10.625Z,5.80
2019-01-20T13:10:40.924Z,6.50
2019-01-20T13:15:40.618Z,5.60
2019-01-20T13:18:10.949Z,7.25
2019-01-20T13:20:41.186Z,5.50
2019-01-20T13:35:38.497Z,6.60
2019-01-20T13:38:11.022Z,9.50
2019-01-20T13:40:45.994Z,11.40
2019-01-20T13:43:16.309Z,11.45
2019-01-20T13:45:46.545Z,10.60
2019-01-20T13:48:16.864Z,9.80
2019-01-20T14:03:13.970Z,15.10
2019-01-20T14:05:44.252Z,12.90
2019-01-20T14:08:14.476Z,12.35
2019-01-20T14:10:44.725Z,12.45
2019-01-20T14:13:15.023Z,11.13
2019-01-20T14:15:45.272Z,10.73
2019-01-20T14:18:15.493Z,10.30
2019-01-20T14:20:45.716Z,10.27
2019-01-20T14:23:16.139Z,9.47
2019-01-20T14:25:46.483Z,11.77
2019-01-20T14:28:18.410Z,13.70
2019-01-20T14:30:48.665Z,12.13
2019-01-20T14:33:18.981Z,13.17
2019-01-20T14:35:49.242Z,11.00
2019-01-20T14:38:19.464Z,12.43
2019-01-20T14:40:49.790Z,10.40
2019-01-20T14:43:20.016Z,12.53
2019-01-20T14:45:50.311Z,10.53
2019-01-20T14:48:20.544Z,10.33
2019-01-20T14:50:50.822Z,9.95
2019-01-20T14:53:21.084Z,8.87
2019-01-20T14:55:51.342Z,10.10
2019-01-20T14:58:21.596Z,11.63
2019-01-20T15:00:51.859Z,10.40
2019-01-20T15:03:22.274Z,9.15
2019-01-20T15:05:52.539Z,9.50
2019-01-20T15:08:22.826Z,10.35
2019-01-20T15:10:53.118Z,9.95
2019-01-20T15:13:23.507Z,12.10
2019-01-20T15:15:53.755Z,14.10
2019-01-20T15:18:23.988Z,12.50
2019-01-20T15:20:54.370Z,12.00
2019-01-20T15:23:24.693Z,10.30
2019-01-20T15:25:55.271Z,9.30
2019-01-20T15:28:25.481Z,11.20
2019-01-20T15:30:55.737Z,10.50
2019-01-20T15:33:26.823Z,9.70
2019-01-20T15:35:57.071Z,9.90
2019-01-20T15:38:27.317Z,11.43
2019-01-20T15:40:57.587Z,10.50
2019-01-20T15:43:27.887Z,8.77
2019-01-20T15:45:58.140Z,10.43
2019-01-20T15:48:28.390Z,9.37
2019-01-20T15:50:58.649Z,10.10
2019-01-20T15:53:28.907Z,9.90
2019-01-20T15:55:59.173Z,9.43
2019-01-20T15:58:29.391Z,10.37
2019-01-20T16:00:59.663Z,11.37
2019-01-20T16:03:29.887Z,10.83
2019-01-20T16:06:00.127Z,10.60
2019-01-20T16:08:30.380Z,10.10
2019-01-20T16:11:00.691Z,10.50
2019-01-20T16:13:30.909Z,10.40
2019-01-20T16:16:01.228Z,10.40
2019-01-20T16:18:31.469Z,9.80
2019-01-20T16:21:01.727Z,8.90
2019-01-20T16:23:32.045Z,10.83
2019-01-20T16:26:02.305Z,10.23
2019-01-20T16:28:32.577Z,9.90
2019-01-20T16:31:02.846Z,10.43
2019-01-20T16:33:33.087Z,10.33
2019-01-20T16:36:03.359Z,10.65
2019-01-20T16:38:33.605Z,10.73
2019-01-20T16:41:03.931Z,11.10
2019-01-20T16:43:34.161Z,9.73
2019-01-20T16:46:04.779Z,9.60
2019-01-20T16:48:35.014Z,9.83
2019-01-20T16:51:05.519Z,10.40
2019-01-20T16:53:35.772Z,10.90
2019-01-20T16:56:06.043Z,10.87
2019-01-20T16:58:36.345Z,10.50
2019-01-20T17:01:06.953Z,11.15
2019-01-20T17:03:37.183Z,10.55
2019-01-20T17:06:07.430Z,9.70
2019-01-20T17:08:37.688Z,10.60
2019-01-20T17:11:07.954Z,9.80
2019-01-20T18:05:57.022Z,9.20
2019-01-20T18:08:27.276Z,7.50
2019-01-20T18:23:26.192Z,10.00
2019-01-20T18:51:09.641Z,10.10
2019-01-20T18:56:09.335Z,11.30
2019-01-20T18:58:39.566Z,9.45
2019-01-20T19:01:10.536Z,10.90
2019-01-20T19:11:09.042Z,10.05
2019-01-20T19:16:09.250Z,9.00
2019-01-20T19:26:07.668Z,9.45
2019-01-20T19:36:06.198Z,9.30
2019-01-20T19:38:36.414Z,8.90
2019-01-20T19:56:03.378Z,8.15
2019-01-20T19:58:33.645Z,8.60
2019-01-20T20:06:02.633Z,8.30
2019-01-20T20:08:32.861Z,9.10
2019-01-20T20:18:35.129Z,7.60
2019-01-20T20:31:03.078Z,8.00
2019-01-20T20:55:57.845Z,9.30
2019-01-20T21:28:21.847Z,8.00
2019-01-20T21:38:20.328Z,7.80
2019-01-20T22:40:35.870Z,10.20
2019-01-20T22:43:06.235Z,10.50
2019-01-20T22:48:06.089Z,10.20
2019-01-20T22:50:36.298Z,9.80
2019-01-20T22:53:06.598Z,9.90
2019-01-20T22:55:36.818Z,9.80
2019-01-20T22:58:07.075Z,9.80
2019-01-20T23:03:13.795Z,9.93
2019-01-20T23:05:44.084Z,9.57
2019-01-20T23:08:14.347Z,9.63
2019-01-20T23:10:44.639Z,10.93
2019-01-20T23:13:14.962Z,10.60
2019-01-20T23:15:45.195Z,9.60
2019-01-20T23:18:15.526Z,9.90
2019-01-20T23:20:45.764Z,11.20
2019-01-20T23:23:16.038Z,10.30
2019-01-20T23:25:46.284Z,9.80
2019-01-20T23:28:16.560Z,10.43
2019-01-20T23:30:46.799Z,9.30
2019-01-20T23:33:17.053Z,10.50
2019-01-20T23:35:47.285Z,10.60
2019-01-20T23:38:17.607Z,10.23
2019-01-20T23:40:47.827Z,10.40
2019-01-20T23:43:18.078Z,11.40
2019-01-20T23:45:48.396Z,11.33
2019-01-20T23:48:18.658Z,11.27
2019-01-20T23:50:48.879Z,10.70
2019-01-20T23:53:19.156Z,11.53
2019-01-20T23:55:49.403Z,11.10
2019-01-20T23:58:19.742Z,11.37
